sensor_id;sensor_type;location;lat;lon;timestamp;pressure;altitude;pressure_sealevel;temperature;humidity
62694;BME280;48759;52.544;13.418;2023-04-08T00:11:45;101401.31;;;21.81;38.59
62694;BME280;48759;52.544;13.418;2023-04-08T00:14:19;101411.41;;;20.17;39.83
62694;BME280;48759;52.544;13.418;2023-04-08T00:17:06;101412.97;;;20.80;39.67
62694;BME280;48759;52.544;13.418;2023-04-08T00:19:52;101411.00;;;21.41;38.23
62694;BME280;48759;52.544;13.418;2023-04-08T00:22:47;101409.25;;;18.01;43.09
62694;BME280;48759;52.544;13.418;2023-04-08T00:25:42;101410.78;;;17.85;44.64
62694;BME280;48759;52.544;13.418;2023-04-08T00:28:25;101396.53;;;18.05;43.96
62694;BME280;48759;52.544;13.418;2023-04-08T00:31:12;101396.47;;;17.82;45.13
62694;BME280;48759;52.544;13.418;2023-04-08T00:34:02;101403.59;;;16.81;46.88
62694;BME280;48759;52.544;13.418;2023-04-08T00:36:29;101414.00;;;17.71;46.58
62694;BME280;48759;52.544;13.418;2023-04-08T00:47:14;101405.16;;;18.85;43.26
62694;BME280;48759;52.544;13.418;2023-04-08T00:50:17;101406.84;;;18.40;43.84
62694;BME280;48759;52.544;13.418;2023-04-08T00:53:07;101394.41;;;19.29;42.61
62694;BME280;48759;52.544;13.418;2023-04-08T00:56:19;101402.25;;;18.10;43.66
62694;BME280;48759;52.544;13.418;2023-04-08T00:59:10;101401.06;;;18.64;43.68
62694;BME280;48759;52.544;13.418;2023-04-08T01:08:22;101409.84;;;19.48;41.85
62694;BME280;48759;52.544;13.418;2023-04-08T01:11:13;101415.31;;;19.71;41.09
62694;BME280;48759;52.544;13.418;2023-04-08T01:14:05;101410.16;;;19.35;42.56
62694;BME280;48759;52.544;13.418;2023-04-08T01:16:48;101404.81;;;20.07;41.38
62694;BME280;48759;52.544;13.418;2023-04-08T01:19:23;101419.91;;;19.21;41.91
62694;BME280;48759;52.544;13.418;2023-04-08T01:22:02;101416.41;;;19.99;41.05
62694;BME280;48759;52.544;13.418;2023-04-08T01:25:00;101412.72;;;19.53;41.59
62694;BME280;48759;52.544;13.418;2023-04-08T01:27:57;100382.84;;;19.17;42.56
62694;BME280;48759;52.544;13.418;2023-04-08T01:30:46;101418.91;;;20.84;39.80
62694;BME280;48759;52.544;13.418;2023-04-08T01:33:31;101422.06;;;21.09;39.52
62694;BME280;48759;52.544;13.418;2023-04-08T01:36:12;101426.50;;;19.71;41.22
62694;BME280;48759;52.544;13.418;2023-04-08T01:38:56;101408.50;;;19.51;41.37
62694;BME280;48759;52.544;13.418;2023-04-08T01:41:50;101415.41;;;20.05;40.86
62694;BME280;48759;52.544;13.418;2023-04-08T01:44:34;101420.69;;;19.61;41.84
62694;BME280;48759;52.544;13.418;2023-04-08T01:47:18;101428.59;;;20.09;40.89
62694;BME280;48759;52.544;13.418;2023-04-08T01:50:04;101428.88;;;19.91;41.38
62694;BME280;48759;52.544;13.418;2023-04-08T01:53:01;101432.69;;;20.69;39.22
62694;BME280;48759;52.544;13.418;2023-04-08T01:55:48;101429.88;;;20.69;39.27
62694;BME280;48759;52.544;13.418;2023-04-08T01:58:35;101428.09;;;20.63;39.52
62694;BME280;48759;52.544;13.418;2023-04-08T02:08:23;101425.31;;;19.67;41.00
62694;BME280;48759;52.544;13.418;2023-04-08T02:11:09;101422.22;;;19.00;42.12
62694;BME280;48759;52.544;13.418;2023-04-08T02:13:46;101432.63;;;19.17;41.66
62694;BME280;48759;52.544;13.418;2023-04-08T02:16:29;101435.75;;;19.32;41.59
62694;BME280;48759;52.544;13.418;2023-04-08T02:19:31;101446.69;;;19.90;41.31
62694;BME280;48759;52.544;13.418;2023-04-08T02:22:06;101449.38;;;20.30;40.17
62694;BME280;48759;52.544;13.418;2023-04-08T02:24:53;101451.72;;;19.76;40.82
62694;BME280;48759;52.544;13.418;2023-04-08T02:27:28;101447.97;;;20.61;39.56
62694;BME280;48759;52.544;13.418;2023-04-08T02:30:15;101455.53;;;20.32;40.16
62694;BME280;48759;52.544;13.418;2023-04-08T02:32:59;101450.75;;;19.82;41.26
62694;BME280;48759;52.544;13.418;2023-04-08T02:35:40;101447.75;;;18.57;43.04
62694;BME280;48759;52.544;13.418;2023-04-08T02:38:26;101449.81;;;20.39;39.96
62694;BME280;48759;52.544;13.418;2023-04-08T02:41:02;101445.09;;;19.66;41.06
62694;BME280;48759;52.544;13.418;2023-04-08T02:43:42;101450.13;;;19.12;41.96
62694;BME280;48759;52.544;13.418;2023-04-08T02:46:49;101453.13;;;19.62;41.20
62694;BME280;48759;52.544;13.418;2023-04-08T02:49:42;101462.19;;;19.69;41.17
62694;BME280;48759;52.544;13.418;2023-04-08T02:52:33;101456.31;;;18.91;42.41
62694;BME280;48759;52.544;13.418;2023-04-08T02:55:33;101458.03;;;19.83;40.95
62694;BME280;48759;52.544;13.418;2023-04-08T02:58:19;101458.63;;;19.57;41.03
62694;BME280;48759;52.544;13.418;2023-04-08T03:01:17;101465.50;;;19.95;41.16
62694;BME280;48759;52.544;13.418;2023-04-08T03:04:07;101468.94;;;20.13;40.48
62694;BME280;48759;52.544;13.418;2023-04-08T03:06:49;101459.31;;;20.38;40.25
62694;BME280;48759;52.544;13.418;2023-04-08T03:09:31;101461.56;;;21.29;37.42
62694;BME280;48759;52.544;13.418;2023-04-08T03:12:00;101467.66;;;20.88;38.95
62694;BME280;48759;52.544;13.418;2023-04-08T03:20:55;101482.69;;;20.65;39.19
62694;BME280;48759;52.544;13.418;2023-04-08T03:23:30;101483.88;;;20.36;39.88
62694;BME280;48759;52.544;13.418;2023-04-08T03:26:01;101484.50;;;20.09;40.46
62694;BME280;48759;52.544;13.418;2023-04-08T03:28:35;101482.53;;;19.53;41.17
62694;BME280;48759;52.544;13.418;2023-04-08T03:31:18;101476.78;;;19.71;41.30
62694;BME280;48759;52.544;13.418;2023-04-08T03:34:01;101488.16;;;19.81;41.41
62694;BME280;48759;52.544;13.418;2023-04-08T03:36:51;101481.16;;;20.57;39.56
62694;BME280;48759;52.544;13.418;2023-04-08T03:39:33;101487.63;;;19.56;41.24
62694;BME280;48759;52.544;13.418;2023-04-08T03:42:10;101485.16;;;19.71;41.38
62694;BME280;48759;52.544;13.418;2023-04-08T03:44:50;101496.19;;;20.06;40.45
62694;BME280;48759;52.544;13.418;2023-04-08T03:47:20;101491.75;;;19.94;41.14
62694;BME280;48759;52.544;13.418;2023-04-08T03:49:57;101494.16;;;18.98;42.49
62694;BME280;48759;52.544;13.418;2023-04-08T03:52:45;101489.06;;;18.95;42.18
62694;BME280;48759;52.544;13.418;2023-04-08T03:55:20;101493.66;;;20.05;41.01
62694;BME280;48759;52.544;13.418;2023-04-08T03:58:08;101498.84;;;20.96;39.51
62694;BME280;48759;52.544;13.418;2023-04-08T04:01:03;101510.38;;;21.00;39.03
62694;BME280;48759;52.544;13.418;2023-04-08T04:03:37;101496.94;;;20.02;40.56
62694;BME280;48759;52.544;13.418;2023-04-08T04:06:18;101506.09;;;20.59;40.05
62694;BME280;48759;52.544;13.418;2023-04-08T04:09:26;101514.72;;;20.57;39.78
62694;BME280;48759;52.544;13.418;2023-04-08T04:12:12;101512.19;;;20.73;39.77
62694;BME280;48759;52.544;13.418;2023-04-08T04:14:46;101516.50;;;20.30;40.15
62694;BME280;48759;52.544;13.418;2023-04-08T04:17:26;101522.84;;;19.85;40.49
62694;BME280;48759;52.544;13.418;2023-04-08T04:19:54;101511.25;;;20.84;39.19
62694;BME280;48759;52.544;13.418;2023-04-08T04:22:31;101523.22;;;19.49;41.49
62694;BME280;48759;52.544;13.418;2023-04-08T04:25:33;101525.41;;;19.99;40.76
62694;BME280;48759;52.544;13.418;2023-04-08T04:28:49;101528.25;;;19.24;42.09
62694;BME280;48759;52.544;13.418;2023-04-08T04:34:52;101530.88;;;27.42;31.24
62694;BME280;48759;52.544;13.418;2023-04-08T04:40:18;101537.03;;;26.18;31.46
62694;BME280;48759;52.544;13.418;2023-04-08T04:43:47;101548.94;;;26.05;31.33
62694;BME280;48759;52.544;13.418;2023-04-08T04:46:34;101545.41;;;26.72;30.68
62694;BME280;48759;52.544;13.418;2023-04-08T04:52:31;101553.31;;;20.27;38.83
62694;BME280;48759;52.544;13.418;2023-04-08T04:55:30;101553.41;;;20.94;38.27
62694;BME280;48759;52.544;13.418;2023-04-08T04:58:12;101556.81;;;19.66;38.94
62694;BME280;48759;52.544;13.418;2023-04-08T05:00:49;101558.44;;;23.45;35.51
62694;BME280;48759;52.544;13.418;2023-04-08T05:03:21;101559.38;;;20.07;38.47
62694;BME280;48759;52.544;13.418;2023-04-08T05:06:04;101568.31;;;24.25;33.86
62694;BME280;48759;52.544;13.418;2023-04-08T05:08:55;101568.88;;;24.27;33.79
62694;BME280;48759;52.544;13.418;2023-04-08T05:11:26;101564.47;;;24.47;33.34
62694;BME280;48759;52.544;13.418;2023-04-08T05:14:06;101571.75;;;22.54;35.47
62694;BME280;48759;52.544;13.418;2023-04-08T05:19:03;101577.81;;;19.92;40.59
62694;BME280;48759;52.544;13.418;2023-04-08T05:21:48;101583.06;;;21.28;39.11
62694;BME280;48759;52.544;13.418;2023-04-08T05:24:31;101584.63;;;19.72;40.15
